Time;durP1;ratioP1;P1;durP2;ratioP2;P2;SDS_P1;SDS_P2;PMS_P1;PMS_P2;Temp;Humidity;BMP_temperature;BMP_pressure;BME280_temperature;BME280_humidity;BME280_pressure;Samples;Min_cycle;Max_cycle;Signal;HPM_P1;HPM_P2
2023/04/27 00:01:49;;;;;;;0.40;0.30;;;4.60;76.70;;;;;;5113005;28;20130;-69
2023/04/27 00:04:15;;;;;;;0.90;0.57;;;4.50;76.60;;;;;;5093728;28;20117;-69
2023/04/27 00:06:41;;;;;;;0.85;0.50;;;4.50;76.70;;;;;;5112394;28;20371;-69
2023/04/27 00:09:07;;;;;;;1.02;0.65;;;4.50;76.70;;;;;;5060901;28;20046;-69
2023/04/27 00:11:33;;;;;;;0.25;0.25;;;4.50;76.80;;;;;;5112964;28;20043;-69
2023/04/27 00:14:02;;;;;;;0.30;0.30;;;4.50;76.80;;;;;;5093732;28;20040;-69
2023/04/27 00:16:28;;;;;;;0.30;0.30;;;4.40;76.80;;;;;;5112676;28;20089;-69
2023/04/27 00:18:54;;;;;;;0.55;0.30;;;4.40;76.80;;;;;;5094721;28;20047;-68
2023/04/27 00:21:20;;;;;;;0.47;0.43;;;4.40;76.90;;;;;;5113176;28;20040;-68
2023/04/27 00:23:46;;;;;;;0.57;0.43;;;4.30;76.90;;;;;;5112539;28;20039;-68
2023/04/27 00:26:12;;;;;;;0.40;0.40;;;4.30;77.00;;;;;;5112970;28;20032;-68
2023/04/27 00:28:37;;;;;;;0.40;0.40;;;4.30;77.10;;;;;;5094106;28;20382;-68
2023/04/27 00:31:03;;;;;;;0.40;0.40;;;4.30;77.10;;;;;;5112759;28;20040;-68
2023/04/27 00:33:29;;;;;;;0.57;0.40;;;4.20;77.10;;;;;;5093155;28;20040;-68
2023/04/27 00:35:59;;;;;;;0.73;0.43;;;4.20;77.20;;;;;;5112265;28;20036;-68
2023/04/27 00:38:25;;;;;;;0.40;0.40;;;4.20;77.20;;;;;;5112191;28;20603;-68
2023/04/27 00:40:51;;;;;;;0.40;0.40;;;4.20;77.20;;;;;;5112791;28;20035;-68
2023/04/27 00:43:16;;;;;;;0.30;0.30;;;4.20;77.30;;;;;;5112263;28;20477;-68
2023/04/27 00:45:42;;;;;;;0.50;0.30;;;4.10;77.30;;;;;;5112265;28;20040;-68
2023/04/27 00:48:10;;;;;;;0.50;0.32;;;4.10;77.40;;;;;;5093364;28;20036;-68
2023/04/27 00:50:37;;;;;;;0.40;0.40;;;4.00;77.40;;;;;;5112022;28;20039;-68
2023/04/27 00:53:04;;;;;;;0.38;0.32;;;4.00;77.40;;;;;;5075753;28;20097;-68
2023/04/27 00:55:30;;;;;;;0.95;0.38;;;4.00;77.50;;;;;;5112282;28;20132;-68
2023/04/27 00:57:56;;;;;;;0.43;0.30;;;4.00;77.60;;;;;;5112281;28;20552;-68
2023/04/27 01:00:21;;;;;;;0.40;0.40;;;4.00;77.60;;;;;;5111971;28;20493;-68
2023/04/27 01:02:48;;;;;;;0.30;0.25;;;3.90;77.70;;;;;;5112264;28;20435;-68
2023/04/27 01:05:13;;;;;;;0.40;0.40;;;3.90;77.70;;;;;;5112444;28;20059;-69
2023/04/27 01:07:40;;;;;;;0.30;0.30;;;3.80;77.70;;;;;;5093092;28;20076;-68
2023/04/27 01:10:07;;;;;;;0.40;0.40;;;3.90;77.70;;;;;;5092294;28;20043;-69
2023/04/27 01:12:32;;;;;;;0.35;0.35;;;3.80;77.80;;;;;;5111871;28;20378;-68
2023/04/27 01:14:58;;;;;;;0.75;0.40;;;3.80;77.80;;;;;;5093188;28;20051;-68
2023/04/27 01:17:24;;;;;;;0.57;0.40;;;3.80;77.90;;;;;;5112989;28;20069;-68
2023/04/27 01:19:50;;;;;;;0.52;0.50;;;3.70;77.90;;;;;;5115415;28;20031;-68
2023/04/27 01:22:16;;;;;;;0.50;0.40;;;3.70;77.90;;;;;;5115394;28;20489;-68
2023/04/27 01:24:42;;;;;;;0.30;0.30;;;3.70;77.90;;;;;;5115622;28;20031;-68
2023/04/27 01:27:08;;;;;;;0.70;0.47;;;3.70;78.00;;;;;;5115363;28;20508;-68
2023/04/27 01:29:33;;;;;;;0.30;0.30;;;3.70;78.00;;;;;;5115388;28;20043;-68
2023/04/27 01:31:59;;;;;;;0.50;0.50;;;3.60;78.00;;;;;;5096180;28;20445;-68
2023/04/27 01:34:25;;;;;;;0.40;0.40;;;3.60;78.10;;;;;;5095328;28;20128;-68
2023/04/27 01:36:51;;;;;;;0.63;0.30;;;3.60;78.10;;;;;;5115241;28;20047;-68
2023/04/27 01:39:16;;;;;;;0.32;0.30;;;3.50;78.10;;;;;;5115230;28;20388;-68
2023/04/27 01:41:42;;;;;;;0.30;0.30;;;3.50;78.10;;;;;;5095307;28;20051;-68
2023/04/27 01:44:07;;;;;;;0.35;0.30;;;3.50;78.20;;;;;;5114977;28;20126;-68
2023/04/27 01:46:33;;;;;;;0.32;0.32;;;3.50;78.20;;;;;;5115199;28;20093;-68
2023/04/27 01:48:59;;;;;;;0.35;0.35;;;3.40;78.20;;;;;;5115245;28;20065;-68
2023/04/27 01:51:25;;;;;;;0.40;0.40;;;3.40;78.30;;;;;;5115379;28;20051;-68
2023/04/27 01:53:50;;;;;;;0.90;0.45;;;3.40;78.40;;;;;;5115067;28;20040;-68
2023/04/27 01:56:16;;;;;;;0.30;0.30;;;3.40;78.40;;;;;;5114863;28;20401;-68
2023/04/27 01:58:41;;;;;;;0.35;0.22;;;3.40;78.50;;;;;;5114678;28;20085;-68
2023/04/27 02:01:07;;;;;;;1.10;0.50;;;3.30;78.50;;;;;;5114605;28;20042;-68
2023/04/27 02:03:33;;;;;;;0.43;0.40;;;3.30;78.60;;;;;;5114831;28;20047;-68
2023/04/27 02:05:58;;;;;;;0.40;0.40;;;3.30;78.60;;;;;;5114976;28;20058;-68
2023/04/27 02:08:24;;;;;;;1.00;0.57;;;3.30;78.60;;;;;;5095636;28;20131;-68
2023/04/27 02:10:49;;;;;;;0.40;0.40;;;3.30;78.70;;;;;;5114420;28;20054;-68
2023/04/27 02:13:15;;;;;;;0.55;0.30;;;3.30;78.80;;;;;;5114979;28;20036;-69
2023/04/27 02:15:41;;;;;;;0.38;0.30;;;3.30;78.80;;;;;;5114619;28;20036;-68
2023/04/27 02:18:06;;;;;;;0.50;0.43;;;3.20;78.70;;;;;;5114437;28;20120;-68
2023/04/27 02:20:32;;;;;;;0.32;0.32;;;3.30;78.70;;;;;;5114348;28;20126;-68
2023/04/27 02:22:58;;;;;;;0.30;0.30;;;3.20;78.70;;;;;;5114265;28;20129;-68
2023/04/27 02:25:24;;;;;;;0.57;0.45;;;3.20;78.70;;;;;;5095158;28;20031;-68
2023/04/27 02:27:50;;;;;;;0.30;0.30;;;3.20;78.70;;;;;;5113827;28;20098;-68
2023/04/27 02:30:16;;;;;;;0.60;0.35;;;3.20;78.70;;;;;;5114579;28;20142;-68
2023/04/27 02:32:42;;;;;;;0.28;0.28;;;3.20;78.70;;;;;;5094684;28;20051;-68
2023/04/27 02:35:08;;;;;;;0.75;0.43;;;3.10;78.70;;;;;;5114520;28;20079;-68
2023/04/27 02:37:34;;;;;;;0.30;0.30;;;3.10;78.80;;;;;;5114449;28;20075;-70
2023/04/27 02:40:00;;;;;;;1.23;0.40;;;3.10;78.80;;;;;;5114517;28;20070;-68
2023/04/27 02:42:25;;;;;;;0.40;0.30;;;3.10;78.90;;;;;;5113974;28;20036;-68
2023/04/27 02:44:51;;;;;;;0.60;0.40;;;3.10;78.90;;;;;;5095834;28;20035;-68
2023/04/27 02:47:17;;;;;;;0.40;0.40;;;3.00;78.90;;;;;;5113907;28;20066;-68
2023/04/27 02:49:43;;;;;;;0.40;0.30;;;3.00;79.00;;;;;;5114037;28;20401;-68
2023/04/27 02:52:08;;;;;;;0.88;0.52;;;3.00;79.00;;;;;;5114115;28;20085;-68
2023/04/27 02:54:34;;;;;;;1.08;0.45;;;3.00;79.10;;;;;;5114042;28;20043;-68
2023/04/27 02:57:00;;;;;;;0.50;0.50;;;3.00;79.10;;;;;;5114035;28;20069;-68
2023/04/27 02:59:26;;;;;;;0.98;0.50;;;3.00;79.10;;;;;;5113634;28;20130;-68
2023/04/27 03:01:51;;;;;;;0.45;0.40;;;2.90;79.10;;;;;;5113786;28;20035;-68
2023/04/27 03:04:17;;;;;;;0.60;0.50;;;2.90;79.10;;;;;;5113700;28;20043;-68
2023/04/27 03:06:43;;;;;;;0.95;0.43;;;2.90;79.10;;;;;;5113788;28;20031;-68
2023/04/27 03:09:09;;;;;;;0.35;0.30;;;2.90;79.20;;;;;;5113716;28;20232;-68
2023/04/27 03:11:35;;;;;;;0.40;0.40;;;2.80;79.20;;;;;;5113635;28;20197;-68
2023/04/27 03:14:02;;;;;;;0.60;0.30;;;2.80;79.30;;;;;;5093503;28;20040;-69
2023/04/27 03:16:27;;;;;;;0.40;0.40;;;2.80;79.40;;;;;;5113526;28;20067;-68
2023/04/27 03:18:53;;;;;;;0.38;0.32;;;2.80;79.40;;;;;;5113417;28;20077;-68
2023/04/27 03:21:19;;;;;;;0.40;0.40;;;2.70;79.40;;;;;;5113643;28;20073;-68
2023/04/27 03:23:44;;;;;;;0.40;0.30;;;2.80;79.50;;;;;;5113339;28;20485;-68
2023/04/27 03:26:12;;;;;;;0.30;0.30;;;2.80;79.40;;;;;;5113892;28;20134;-68
2023/04/27 03:28:38;;;;;;;0.20;0.20;;;2.80;79.50;;;;;;5113250;28;20035;-68
2023/04/27 03:31:05;;;;;;;0.20;0.20;;;2.80;79.40;;;;;;5113289;28;20042;-68
2023/04/27 03:33:31;;;;;;;0.30;0.30;;;2.80;79.40;;;;;;5113351;28;20043;-68
2023/04/27 03:35:58;;;;;;;0.55;0.50;;;2.70;79.30;;;;;;5113141;28;20519;-68
2023/04/27 03:38:25;;;;;;;0.30;0.30;;;2.60;79.40;;;;;;5113172;28;20123;-68
2023/04/27 03:40:52;;;;;;;0.52;0.40;;;2.70;79.60;;;;;;5108648;28;20040;-68
2023/04/27 03:43:18;;;;;;;0.52;0.40;;;2.60;79.60;;;;;;5113075;28;20036;-68
2023/04/27 03:45:44;;;;;;;0.63;0.40;;;2.60;79.60;;;;;;5113140;28;20046;-68
2023/04/27 03:48:09;;;;;;;0.40;0.40;;;2.60;79.70;;;;;;5113425;28;20439;-68
2023/04/27 03:50:35;;;;;;;0.63;0.40;;;2.50;80.40;;;;;;5113223;28;20397;-68
2023/04/27 03:53:00;;;;;;;0.85;0.50;;;2.50;79.80;;;;;;5094812;28;20042;-70
2023/04/27 03:55:26;;;;;;;0.38;0.38;;;2.50;79.90;;;;;;5113461;28;20488;-68
2023/04/27 03:57:52;;;;;;;0.25;0.25;;;2.50;79.90;;;;;;5112724;28;20036;-68
2023/04/27 04:00:18;;;;;;;0.50;0.40;;;2.50;79.80;;;;;;5093787;28;20435;-68
2023/04/27 04:02:44;;;;;;;0.90;0.45;;;2.50;79.90;;;;;;5112825;28;20047;-69
2023/04/27 04:05:11;;;;;;;0.40;0.40;;;2.50;80.00;;;;;;5113645;28;20056;-68
2023/04/27 04:07:37;;;;;;;0.75;0.43;;;2.50;79.90;;;;;;5094338;28;20048;-69
2023/04/27 04:10:03;;;;;;;0.22;0.20;;;2.50;79.90;;;;;;5113362;28;20366;-68
2023/04/27 04:12:29;;;;;;;0.32;0.30;;;2.50;79.90;;;;;;5113002;28;20044;-69
2023/04/27 04:14:55;;;;;;;0.20;0.20;;;2.50;79.90;;;;;;5113157;28;20051;-69
2023/04/27 04:17:20;;;;;;;0.40;0.30;;;2.50;80.00;;;;;;5113041;28;20047;-69
2023/04/27 04:19:46;;;;;;;0.75;0.30;;;2.60;80.00;;;;;;5093307;28;20036;-69
2023/04/27 04:22:12;;;;;;;1.00;0.50;;;2.60;80.50;;;;;;5113060;28;20450;-69
2023/04/27 04:24:39;;;;;;;0.30;0.20;;;2.60;79.70;;;;;;5113074;28;20040;-68
2023/04/27 04:27:05;;;;;;;0.60;0.40;;;2.60;79.70;;;;;;5113449;28;20385;-69
2023/04/27 04:29:31;;;;;;;0.80;0.40;;;2.60;79.70;;;;;;5113116;28;20035;-69
2023/04/27 04:31:57;;;;;;;0.50;0.40;;;2.60;79.80;;;;;;5112706;28;20100;-68
2023/04/27 04:34:23;;;;;;;0.25;0.22;;;2.60;79.70;;;;;;5113195;28;20040;-68
2023/04/27 04:36:50;;;;;;;0.57;0.40;;;2.60;79.70;;;;;;5112721;28;20044;-69
2023/04/27 04:39:18;;;;;;;0.43;0.35;;;2.60;79.80;;;;;;5112502;28;20088;-69
2023/04/27 04:41:44;;;;;;;0.40;0.30;;;2.60;79.80;;;;;;5112498;28;20040;-69
2023/04/27 04:44:10;;;;;;;0.88;0.50;;;2.50;79.80;;;;;;5112527;28;20039;-68
2023/04/27 04:46:36;;;;;;;0.60;0.47;;;2.60;79.90;;;;;;5112391;28;20074;-69
2023/04/27 04:49:01;;;;;;;0.63;0.50;;;2.60;79.90;;;;;;5112553;28;20397;-69
2023/04/27 04:51:27;;;;;;;0.75;0.40;;;2.60;79.90;;;;;;5114170;28;20122;-69
2023/04/27 04:53:52;;;;;;;0.50;0.45;;;2.70;80.00;;;;;;5098145;28;20048;-69
2023/04/27 04:56:18;;;;;;;0.45;0.40;;;2.60;80.00;;;;;;5116160;28;20042;-69
2023/04/27 04:58:44;;;;;;;0.47;0.35;;;2.60;80.00;;;;;;5116010;28;20396;-68
2023/04/27 05:01:10;;;;;;;0.30;0.30;;;2.50;80.00;;;;;;5116088;28;20119;-69
2023/04/27 05:03:36;;;;;;;1.73;0.40;;;2.60;80.10;;;;;;5116251;28;20051;-69
2023/04/27 05:06:01;;;;;;;1.30;0.40;;;2.60;80.00;;;;;;5116488;28;20032;-69
2023/04/27 05:08:27;;;;;;;0.38;0.38;;;2.70;80.00;;;;;;5115916;28;20389;-68
2023/04/27 05:10:53;;;;;;;0.52;0.30;;;2.80;80.00;;;;;;5095529;28;20543;-69
2023/04/27 05:13:20;;;;;;;0.32;0.30;;;2.80;79.90;;;;;;5116078;28;20481;-68
2023/04/27 05:15:45;;;;;;;0.68;0.40;;;2.80;79.80;;;;;;5115682;28;20036;-68
2023/04/27 05:18:11;;;;;;;0.20;0.20;;;2.90;79.70;;;;;;5115717;28;20131;-68
2023/04/27 05:20:38;;;;;;;0.45;0.40;;;3.00;79.70;;;;;;5115734;28;20043;-68
2023/04/27 05:23:04;;;;;;;0.30;0.30;;;3.00;79.60;;;;;;5115987;28;20425;-68
2023/04/27 05:25:31;;;;;;;0.80;0.40;;;3.00;79.60;;;;;;5116020;28;20035;-68
2023/04/27 05:27:56;;;;;;;0.30;0.30;;;3.10;79.60;;;;;;5115777;28;20553;-68
2023/04/27 05:30:22;;;;;;;0.60;0.40;;;3.10;79.50;;;;;;5115218;28;20134;-68
2023/04/27 05:32:48;;;;;;;0.65;0.40;;;3.20;79.50;;;;;;5115816;28;20479;-69
2023/04/27 05:35:13;;;;;;;0.50;0.43;;;3.30;79.40;;;;;;5097728;28;20043;-68
2023/04/27 05:37:39;;;;;;;0.40;0.28;;;3.40;79.40;;;;;;5115599;28;20048;-68
2023/04/27 05:40:08;;;;;;;0.45;0.43;;;3.40;79.30;;;;;;5115683;28;20036;-68
2023/04/27 05:42:34;;;;;;;0.45;0.45;;;3.50;79.30;;;;;;5093333;28;20140;-68
2023/04/27 05:44:59;;;;;;;0.40;0.40;;;3.50;79.30;;;;;;5115262;28;20484;-68
2023/04/27 05:47:25;;;;;;;0.57;0.47;;;3.60;79.30;;;;;;5115595;28;20055;-69
2023/04/27 05:49:51;;;;;;;0.40;0.40;;;3.60;79.20;;;;;;5115233;28;20138;-68
2023/04/27 05:52:18;;;;;;;0.73;0.43;;;3.70;79.20;;;;;;5115295;28;20039;-68
2023/04/27 05:54:47;;;;;;;0.40;0.40;;;3.70;79.20;;;;;;5115397;28;20040;-69
2023/04/27 05:57:13;;;;;;;0.52;0.40;;;3.80;79.10;;;;;;5115478;28;20040;-69
2023/04/27 05:59:40;;;;;;;0.95;0.50;;;3.90;79.10;;;;;;5095326;28;20076;-69
2023/04/27 06:02:05;;;;;;;0.22;0.22;;;4.00;79.10;;;;;;5114714;28;20035;-69
2023/04/27 06:04:32;;;;;;;0.50;0.50;;;4.00;79.00;;;;;;5096001;28;20143;-69
2023/04/27 06:06:58;;;;;;;0.57;0.40;;;4.10;78.90;;;;;;5115030;28;20036;-69
2023/04/27 06:09:24;;;;;;;0.50;0.40;;;4.20;78.80;;;;;;5114897;28;20127;-69
2023/04/27 06:11:50;;;;;;;0.28;0.28;;;4.20;78.70;;;;;;5114827;28;20039;-69
2023/04/27 06:14:16;;;;;;;0.60;0.43;;;4.40;78.70;;;;;;5095714;28;20043;-70
2023/04/27 06:16:42;;;;;;;1.05;0.35;;;4.40;78.60;;;;;;5095163;28;20097;-69
2023/04/27 06:19:08;;;;;;;0.60;0.50;;;4.60;78.50;;;;;;5115092;28;20062;-70
2023/04/27 06:21:34;;;;;;;0.30;0.30;;;4.70;78.40;;;;;;5114724;28;20055;-70
2023/04/27 06:24:00;;;;;;;0.50;0.50;;;4.70;78.20;;;;;;5114572;28;20069;-69
2023/04/27 06:26:27;;;;;;;0.40;0.35;;;4.80;78.20;;;;;;5096410;28;20130;-70
2023/04/27 06:28:54;;;;;;;0.30;0.30;;;4.90;78.20;;;;;;5115173;28;20043;-69
2023/04/27 06:31:20;;;;;;;0.43;0.40;;;5.00;78.10;;;;;;5114957;28;20048;-70
2023/04/27 06:33:45;;;;;;;0.50;0.35;;;5.10;78.00;;;;;;5114499;28;20058;-70
2023/04/27 06:36:11;;;;;;;0.52;0.35;;;5.10;77.90;;;;;;5114932;28;20039;-70
2023/04/27 06:38:37;;;;;;;0.80;0.45;;;5.20;78.50;;;;;;5114443;28;20047;-69
2023/04/27 06:41:03;;;;;;;0.75;0.30;;;5.30;77.80;;;;;;5114272;28;20096;-69
2023/04/27 06:43:29;;;;;;;0.30;0.30;;;5.40;77.70;;;;;;5114495;28;20040;-70
2023/04/27 06:45:55;;;;;;;0.40;0.40;;;5.50;77.60;;;;;;5096618;28;20493;-71
2023/04/27 06:48:21;;;;;;;0.80;0.45;;;5.60;77.60;;;;;;5114155;28;20078;-70
2023/04/27 06:50:46;;;;;;;0.40;0.30;;;5.60;77.50;;;;;;5114044;28;20071;-70
2023/04/27 06:53:12;;;;;;;0.40;0.40;;;5.80;77.50;;;;;;5113971;28;20100;-70
2023/04/27 06:55:38;;;;;;;0.50;0.45;;;6.00;77.40;;;;;;5114073;28;20061;-70
2023/04/27 06:58:04;;;;;;;0.45;0.35;;;5.90;77.30;;;;;;5114256;28;20397;-71
2023/04/27 07:00:30;;;;;;;0.38;0.38;;;6.10;77.30;;;;;;5079211;28;20070;-70
2023/04/27 07:02:56;;;;;;;1.08;0.50;;;6.20;77.30;;;;;;5095269;28;20108;-70
2023/04/27 07:05:22;;;;;;;0.38;0.30;;;6.20;77.20;;;;;;5114275;28;20035;-70
2023/04/27 07:07:48;;;;;;;0.60;0.50;;;6.30;77.10;;;;;;5094785;28;20101;-70
2023/04/27 07:10:13;;;;;;;0.70;0.40;;;6.50;77.20;;;;;;5095800;28;20184;-70
2023/04/27 07:12:40;;;;;;;0.40;0.40;;;6.50;77.00;;;;;;5114136;28;20544;-70
2023/04/27 07:15:07;;;;;;;0.40;0.40;;;6.60;76.80;;;;;;5094803;28;20044;-71
2023/04/27 07:17:33;;;;;;;0.35;0.32;;;6.80;76.80;;;;;;5113835;28;20066;-71
2023/04/27 07:20:00;;;;;;;0.30;0.30;;;6.80;76.70;;;;;;5113621;28;20032;-70
2023/04/27 07:22:27;;;;;;;0.77;0.50;;;6.90;76.70;;;;;;5095871;28;20047;-70
2023/04/27 07:24:53;;;;;;;0.28;0.22;;;7.00;76.50;;;;;;5094128;28;20131;-70
2023/04/27 07:27:19;;;;;;;0.32;0.32;;;7.10;76.50;;;;;;5113914;28;20067;-70
2023/04/27 07:29:44;;;;;;;0.35;0.35;;;7.20;76.40;;;;;;5113355;28;20540;-70
2023/04/27 07:32:10;;;;;;;0.80;0.60;;;7.30;76.30;;;;;;5113663;28;20051;-70
2023/04/27 07:34:36;;;;;;;0.63;0.60;;;7.50;76.30;;;;;;5093247;28;20139;-70
2023/04/27 07:37:02;;;;;;;0.80;0.50;;;7.60;76.20;;;;;;5094597;28;20409;-70
2023/04/27 07:39:27;;;;;;;0.70;0.50;;;7.60;75.90;;;;;;5113474;28;20040;-70
2023/04/27 07:41:53;;;;;;;0.73;0.47;;;7.80;75.90;;;;;;5113673;28;20050;-70
2023/04/27 07:44:20;;;;;;;0.30;0.30;;;7.90;75.80;;;;;;5077861;28;20067;-70
2023/04/27 07:46:47;;;;;;;1.50;0.38;;;8.00;75.60;;;;;;5113288;28;20038;-70
2023/04/27 07:49:14;;;;;;;0.50;0.50;;;8.20;75.50;;;;;;5113590;28;20040;-70
2023/04/27 07:51:39;;;;;;;0.63;0.40;;;8.30;75.40;;;;;;5114013;28;20067;-70
2023/04/27 07:54:05;;;;;;;0.68;0.55;;;8.50;75.20;;;;;;5113199;28;20505;-70
2023/04/27 07:56:31;;;;;;;0.40;0.40;;;8.70;75.00;;;;;;5113524;28;20485;-70
2023/04/27 07:58:57;;;;;;;1.00;0.65;;;8.80;74.80;;;;;;5113471;28;20134;-70
2023/04/27 08:01:23;;;;;;;0.52;0.52;;;9.00;74.60;;;;;;5095358;28;20114;-70
2023/04/27 08:03:48;;;;;;;0.40;0.40;;;9.20;74.50;;;;;;5113159;28;20040;-70
2023/04/27 08:06:14;;;;;;;0.47;0.47;;;9.40;74.30;;;;;;5113347;28;20139;-70
2023/04/27 08:08:40;;;;;;;0.60;0.50;;;9.60;74.00;;;;;;5094720;28;20039;-70
2023/04/27 08:11:09;;;;;;;0.38;0.38;;;9.70;73.80;;;;;;5112904;28;20039;-70
2023/04/27 08:13:35;;;;;;;0.63;0.50;;;9.90;73.60;;;;;;5112988;28;20386;-70
2023/04/27 08:16:01;;;;;;;0.50;0.40;;;10.10;73.40;;;;;;5112835;28;20035;-70
2023/04/27 08:18:27;;;;;;;1.15;0.50;;;10.30;73.20;;;;;;5113230;28;20077;-70
2023/04/27 08:20:53;;;;;;;1.33;0.55;;;10.40;73.00;;;;;;5112849;28;20122;-70
2023/04/27 08:23:19;;;;;;;0.38;0.38;;;10.60;73.00;;;;;;5112636;28;20043;-70
2023/04/27 08:25:45;;;;;;;0.40;0.40;;;10.80;72.80;;;;;;5112292;28;20035;-70
2023/04/27 08:28:11;;;;;;;0.95;0.35;;;11.00;72.60;;;;;;5112596;28;20043;-70
2023/04/27 08:30:37;;;;;;;0.68;0.50;;;11.10;72.30;;;;;;5094397;28;20092;-70
2023/04/27 08:33:02;;;;;;;0.47;0.30;;;11.30;72.40;;;;;;5092904;28;20489;-70
2023/04/27 08:35:28;;;;;;;0.40;0.40;;;11.30;72.30;;;;;;5112924;28;20035;-70
2023/04/27 08:37:54;;;;;;;0.73;0.45;;;11.30;72.50;;;;;;5112625;28;20050;-70
2023/04/27 08:40:19;;;;;;;0.40;0.40;;;11.50;72.50;;;;;;5112576;28;20176;-70
2023/04/27 08:42:55;;;;;;;0.60;0.60;;;11.50;72.40;;;;;;5112457;28;20510;-70
2023/04/27 08:45:23;;;;;;;0.40;0.40;;;11.60;72.30;;;;;;5112832;28;20071;-70
2023/04/27 08:47:49;;;;;;;0.50;0.50;;;11.80;72.20;;;;;;5112449;28;20032;-70
2023/04/27 08:50:14;;;;;;;0.40;0.40;;;11.90;72.00;;;;;;5093942;28;20051;-70
2023/04/27 08:52:43;;;;;;;0.40;0.40;;;12.00;71.80;;;;;;5112656;28;20086;-70
2023/04/27 08:55:09;;;;;;;0.50;0.50;;;12.00;71.80;;;;;;5093007;28;20048;-70
2023/04/27 08:57:35;;;;;;;0.40;0.40;;;12.10;71.90;;;;;;5112433;28;20105;-70
2023/04/27 09:00:05;;;;;;;0.40;0.40;;;12.30;71.80;;;;;;5093574;28;20085;-70
2023/04/27 09:02:31;;;;;;;0.40;0.40;;;12.30;71.70;;;;;;5112229;28;20074;-70
2023/04/27 09:04:56;;;;;;;0.50;0.50;;;12.40;71.60;;;;;;5112082;28;20040;-70
2023/04/27 09:07:22;;;;;;;0.57;0.40;;;12.40;71.40;;;;;;5112159;28;20031;-70
2023/04/27 09:09:48;;;;;;;0.40;0.40;;;12.50;71.50;;;;;;5112224;28;20474;-70
2023/04/27 09:12:17;;;;;;;0.40;0.40;;;12.60;71.40;;;;;;5112276;28;20040;-70
2023/04/27 09:14:54;;;;;;;0.30;0.30;;;12.70;71.30;;;;;;5112207;28;20044;-70
2023/04/27 09:17:25;;;;;;;0.43;0.43;;;12.60;71.30;;;;;;5093981;28;20103;-70
2023/04/27 09:19:50;;;;;;;0.32;0.32;;;12.70;71.50;;;;;;5093921;28;20169;-69
2023/04/27 09:22:16;;;;;;;0.40;0.40;;;12.70;71.50;;;;;;5112191;28;20073;-70
2023/04/27 09:24:51;;;;;;;0.90;0.50;;;12.90;71.30;;;;;;5111866;28;20078;-70
2023/04/27 09:27:20;;;;;;;0.80;0.50;;;12.90;71.00;;;;;;5111852;28;20043;-70
2023/04/27 09:29:46;;;;;;;0.68;0.47;;;13.00;70.90;;;;;;5111854;28;20040;-70
2023/04/27 09:32:15;;;;;;;1.58;0.60;;;13.00;70.70;;;;;;5112097;28;20134;-70
2023/04/27 09:34:41;;;;;;;0.60;0.40;;;13.00;70.70;;;;;;5093548;28;20400;-70
2023/04/27 09:37:07;;;;;;;0.30;0.30;;;13.00;70.50;;;;;;5111966;28;20046;-70
2023/04/27 09:39:33;;;;;;;0.70;0.38;;;12.90;70.50;;;;;;5114984;28;20473;-70
2023/04/27 09:41:59;;;;;;;0.30;0.30;;;13.00;70.60;;;;;;5115695;28;20093;-70
2023/04/27 09:44:27;;;;;;;0.55;0.50;;;13.20;70.40;;;;;;5115667;28;20107;-70
2023/04/27 09:46:55;;;;;;;0.50;0.50;;;13.30;70.20;;;;;;5115888;28;20115;-70
2023/04/27 09:49:22;;;;;;;0.40;0.40;;;13.40;69.80;;;;;;5115461;28;20063;-70
2023/04/27 09:51:47;;;;;;;0.30;0.30;;;13.50;69.70;;;;;;5115030;28;20051;-70
2023/04/27 09:54:14;;;;;;;0.40;0.40;;;13.50;69.70;;;;;;5115085;28;20032;-70
2023/04/27 09:57:03;;;;;;;0.45;0.45;;;13.50;69.60;;;;;;5115211;28;20054;-69
2023/04/27 09:59:57;;;;;;;0.20;0.20;;;13.40;69.50;;;;;;5114902;28;20044;-69
2023/04/27 10:02:25;;;;;;;0.95;0.60;;;13.70;69.60;;;;;;5097008;28;20405;-69
2023/04/27 10:05:20;;;;;;;0.50;0.50;;;13.70;69.50;;;;;;5096769;28;20046;-69
2023/04/27 10:07:46;;;;;;;0.63;0.40;;;13.70;69.20;;;;;;5114898;28;20437;-69
2023/04/27 10:10:17;;;;;;;0.40;0.40;;;13.70;69.20;;;;;;5115292;28;20054;-69
2023/04/27 10:12:42;;;;;;;0.52;0.43;;;13.70;68.90;;;;;;5115296;28;20488;-69
2023/04/27 10:15:16;;;;;;;0.70;0.60;;;13.70;69.10;;;;;;5114745;28;20044;-69
2023/04/27 10:17:51;;;;;;;0.55;0.55;;;13.70;69.10;;;;;;5095658;28;20144;-69
2023/04/27 10:20:28;;;;;;;0.40;0.40;;;13.90;69.00;;;;;;5114531;28;20040;-69
2023/04/27 10:22:54;;;;;;;0.40;0.40;;;13.90;68.80;;;;;;5114799;28;20509;-69
2023/04/27 10:25:28;;;;;;;0.47;0.45;;;13.90;68.90;;;;;;5114547;28;20047;-69
2023/04/27 10:28:00;;;;;;;0.95;0.50;;;13.90;68.80;;;;;;5094966;28;20114;-69
2023/04/27 10:30:31;;;;;;;0.50;0.50;;;13.90;68.70;;;;;;5114968;28;20047;-69
2023/04/27 10:33:02;;;;;;;0.60;0.50;;;14.00;68.60;;;;;;5094935;28;20486;-69
2023/04/27 10:35:40;;;;;;;1.33;0.60;;;14.10;68.40;;;;;;5114461;28;20489;-69
2023/04/27 10:38:09;;;;;;;0.95;0.57;;;14.20;68.20;;;;;;5115035;28;20047;-69
2023/04/27 10:40:36;;;;;;;0.65;0.60;;;14.10;68.10;;;;;;5114765;28;20036;-68
2023/04/27 10:43:17;;;;;;;0.40;0.40;;;14.10;68.10;;;;;;5078501;28;20043;-69
2023/04/27 10:45:43;;;;;;;0.50;0.40;;;14.00;68.00;;;;;;5114713;28;20052;-69
2023/04/27 10:48:13;;;;;;;0.35;0.35;;;14.20;68.10;;;;;;5114353;28;20032;-69
2023/04/27 10:50:39;;;;;;;0.47;0.47;;;14.20;67.80;;;;;;5113896;28;20078;-69
2023/04/27 10:53:06;;;;;;;0.40;0.40;;;14.20;67.70;;;;;;5114226;28;20080;-69
2023/04/27 10:55:34;;;;;;;0.50;0.50;;;14.20;67.70;;;;;;5113938;28;20118;-69
2023/04/27 10:58:00;;;;;;;0.50;0.50;;;14.20;67.70;;;;;;5114632;28;20051;-69
2023/04/27 11:00:32;;;;;;;0.80;0.70;;;14.20;67.60;;;;;;5113960;28;20126;-69
2023/04/27 11:03:11;;;;;;;1.00;0.90;;;14.10;67.50;;;;;;5114183;28;20043;-69
2023/04/27 11:05:37;;;;;;;0.60;0.60;;;14.00;67.70;;;;;;5113985;28;20040;-69
2023/04/27 11:08:07;;;;;;;0.60;0.60;;;14.00;67.80;;;;;;5094588;28;20044;-69
2023/04/27 11:10:34;;;;;;;1.10;0.80;;;14.00;67.80;;;;;;5114110;28;20370;-69
2023/04/27 11:13:08;;;;;;;0.50;0.45;;;14.30;67.80;;;;;;5114295;28;20168;-69
2023/04/27 11:15:44;;;;;;;0.98;0.63;;;14.30;67.20;;;;;;5114225;28;20130;-69
2023/04/27 11:18:09;;;;;;;0.50;0.50;;;14.30;66.70;;;;;;5113779;28;20043;-69
2023/04/27 11:20:35;;;;;;;1.02;0.70;;;14.40;66.60;;;;;;5114392;28;20176;-69
2023/04/27 11:23:01;;;;;;;0.50;0.50;;;14.50;66.40;;;;;;5114238;28;20043;-69
2023/04/27 11:25:27;;;;;;;1.15;0.70;;;14.50;66.20;;;;;;5113592;28;20047;-69
2023/04/27 11:27:53;;;;;;;0.68;0.68;;;14.50;66.20;;;;;;5113553;28;20121;-69
2023/04/27 11:30:20;;;;;;;1.02;0.52;;;14.50;66.30;;;;;;5114099;28;20079;-69
2023/04/27 11:32:47;;;;;;;0.60;0.50;;;14.60;66.20;;;;;;5095402;28;20039;-69
2023/04/27 11:35:13;;;;;;;0.50;0.50;;;14.60;65.80;;;;;;5113625;28;20049;-69
2023/04/27 11:37:38;;;;;;;0.93;0.60;;;14.60;65.70;;;;;;5094005;28;20123;-68
2023/04/27 11:40:05;;;;;;;1.20;0.60;;;14.60;65.60;;;;;;5113594;28;20545;-69
2023/04/27 11:42:30;;;;;;;1.10;0.63;;;14.50;66.20;;;;;;5077874;28;20463;-69
2023/04/27 11:44:59;;;;;;;0.82;0.70;;;14.50;65.60;;;;;;5113870;28;20028;-70
2023/04/27 11:47:28;;;;;;;0.85;0.70;;;14.60;65.60;;;;;;5113431;28;20046;-68
2023/04/27 11:49:55;;;;;;;1.00;0.65;;;14.60;65.40;;;;;;5113613;28;20103;-69
2023/04/27 11:52:21;;;;;;;0.68;0.63;;;14.60;65.40;;;;;;5109422;28;20050;-69
2023/04/27 11:54:51;;;;;;;0.50;0.50;;;14.60;65.40;;;;;;5094992;28;20404;-69
2023/04/27 11:57:18;;;;;;;0.50;0.50;;;14.70;65.10;;;;;;5113282;28;20047;-69
2023/04/27 11:59:43;;;;;;;0.40;0.40;;;14.70;65.00;;;;;;5112687;28;20044;-69
2023/04/27 12:02:09;;;;;;;0.80;0.70;;;14.70;65.10;;;;;;5111521;28;20091;-69
2023/04/27 12:04:35;;;;;;;0.70;0.70;;;14.70;65.00;;;;;;5093625;28;20036;-69
2023/04/27 12:07:02;;;;;;;0.50;0.50;;;14.80;64.80;;;;;;5113110;28;20070;-69
2023/04/27 12:09:28;;;;;;;1.00;0.77;;;14.80;64.50;;;;;;5113173;28;20035;-69
2023/04/27 12:11:53;;;;;;;0.30;0.30;;;14.80;64.50;;;;;;5113037;28;20505;-69
2023/04/27 12:14:19;;;;;;;0.40;0.40;;;14.80;64.60;;;;;;5113463;28;20050;-70
2023/04/27 12:16:46;;;;;;;0.50;0.50;;;14.90;64.60;;;;;;5112881;28;20036;-69
2023/04/27 12:19:11;;;;;;;1.10;0.50;;;14.90;64.50;;;;;;5094761;28;20050;-69
2023/04/27 12:21:38;;;;;;;1.75;0.85;;;14.90;64.50;;;;;;5112737;28;20048;-69
2023/04/27 12:24:04;;;;;;;0.63;0.52;;;14.90;64.40;;;;;;5112736;28;20042;-69
2023/04/27 12:26:30;;;;;;;0.45;0.45;;;14.70;64.40;;;;;;5113268;28;20035;-69
2023/04/27 12:28:55;;;;;;;0.30;0.30;;;14.70;64.60;;;;;;5113302;28;20044;-69
2023/04/27 12:31:23;;;;;;;0.60;0.60;;;14.70;64.70;;;;;;5094556;28;20044;-69
2023/04/27 12:33:49;;;;;;;0.75;0.60;;;14.80;64.70;;;;;;5113115;28;20195;-69
2023/04/27 12:36:16;;;;;;;0.82;0.60;;;14.80;64.40;;;;;;5094849;28;20067;-69
2023/04/27 12:38:41;;;;;;;1.23;0.80;;;14.80;64.40;;;;;;5112933;28;20035;-69
2023/04/27 12:41:07;;;;;;;0.50;0.50;;;14.90;64.30;;;;;;5094441;28;20122;-69
2023/04/27 12:43:35;;;;;;;0.68;0.65;;;14.90;64.30;;;;;;5112697;28;20040;-69
2023/04/27 12:46:01;;;;;;;0.75;0.50;;;14.90;64.10;;;;;;5112873;28;20093;-69
2023/04/27 12:48:26;;;;;;;0.73;0.60;;;14.90;64.00;;;;;;5112494;28;20043;-69
2023/04/27 12:50:52;;;;;;;0.60;0.60;;;14.80;64.00;;;;;;5112594;28;20126;-69